createdAt,value
2024-01-15T00:00:17.468Z,3.11
2024-01-15T00:01:17.522Z,3.08
2024-01-15T00:02:17.400Z,3.06
2024-01-15T00:03:17.514Z,3.05
2024-01-15T00:04:17.552Z,3.05
2024-01-15T00:05:17.368Z,3.06
2024-01-15T00:06:17.419Z,3.06
2024-01-15T00:07:17.363Z,3.06
2024-01-15T00:08:17.327Z,3.05
2024-01-15T00:09:17.379Z,3.06
2024-01-15T00:10:17.309Z,3.08
2024-01-15T00:11:17.290Z,3.10
2024-01-15T00:12:17.293Z,3.08
2024-01-15T00:13:17.268Z,3.06
2024-01-15T00:14:17.268Z,3.06
2024-01-15T00:15:17.315Z,3.05
2024-01-15T00:16:17.277Z,3.03
2024-01-15T00:17:17.245Z,3.05
2024-01-15T00:18:17.387Z,3.03
2024-01-15T00:19:17.316Z,3.08
2024-01-15T00:20:17.195Z,3.10
2024-01-15T00:21:17.231Z,3.10
2024-01-15T00:22:17.195Z,3.11
2024-01-15T00:23:17.189Z,3.13
2024-01-15T00:24:17.207Z,3.14
2024-01-15T00:25:17.142Z,3.15
2024-01-15T00:26:17.150Z,3.17
2024-01-15T00:27:17.161Z,3.17
2024-01-15T00:28:17.118Z,3.18
2024-01-15T00:29:17.097Z,3.17
2024-01-15T00:30:17.251Z,3.15
2024-01-15T00:31:17.203Z,3.15
2024-01-15T00:32:17.107Z,3.15
2024-01-15T00:33:17.333Z,3.15
2024-01-15T00:34:17.212Z,3.17
2024-01-15T00:35:17.038Z,3.20
2024-01-15T00:36:17.128Z,3.21
2024-01-15T00:37:17.028Z,3.21
2024-01-15T00:38:17.028Z,3.23
2024-01-15T00:39:17.125Z,3.23
2024-01-15T00:40:16.998Z,3.23
2024-01-15T00:41:16.972Z,3.23
2024-01-15T00:42:17.025Z,3.26
2024-01-15T00:43:16.953Z,3.24
2024-01-15T00:44:16.938Z,3.24
2024-01-15T00:45:16.948Z,3.24
2024-01-15T00:46:16.955Z,3.23
2024-01-15T00:47:16.918Z,3.21
2024-01-15T00:48:17.076Z,3.18
2024-01-15T00:49:17.110Z,3.14
2024-01-15T00:50:16.905Z,3.13
2024-01-15T00:51:16.928Z,3.14
2024-01-15T00:52:16.852Z,3.17
2024-01-15T00:53:16.854Z,3.17
2024-01-15T00:54:16.871Z,3.17
2024-01-15T00:55:16.835Z,3.18
2024-01-15T00:56:16.832Z,3.14
2024-01-15T00:57:16.839Z,3.13
2024-01-15T00:58:16.791Z,3.11
2024-01-15T00:59:16.813Z,3.11
2024-01-15T01:00:16.880Z,3.14
2024-01-15T01:01:16.851Z,3.15
2024-01-15T01:02:16.742Z,3.15
2024-01-15T01:03:16.862Z,3.17
2024-01-15T01:04:16.902Z,3.17
2024-01-15T01:05:16.768Z,3.17
2024-01-15T01:06:16.710Z,3.17
2024-01-15T01:07:16.704Z,3.15
2024-01-15T01:08:16.685Z,3.20
2024-01-15T01:09:16.777Z,3.20
2024-01-15T01:10:16.671Z,3.21
2024-01-15T01:11:16.649Z,3.23
2024-01-15T01:12:16.660Z,3.24
2024-01-15T01:13:16.646Z,3.23
2024-01-15T01:14:16.652Z,3.21
2024-01-15T01:15:16.674Z,3.21
2024-01-15T01:16:16.604Z,3.21
2024-01-15T01:17:16.629Z,3.23
2024-01-15T01:18:16.719Z,3.23
2024-01-15T01:19:16.749Z,3.23
2024-01-15T01:20:18.947Z,3.23
2024-01-15T01:21:16.585Z,3.23
2024-01-15T01:22:16.536Z,3.23
2024-01-15T01:23:16.526Z,3.23
2024-01-15T01:24:16.561Z,3.21
2024-01-15T01:25:16.559Z,3.24
2024-01-15T01:26:16.490Z,3.26
2024-01-15T01:27:16.529Z,3.23
2024-01-15T01:28:16.482Z,3.24
2024-01-15T01:29:16.475Z,3.26
2024-01-15T01:30:16.586Z,3.28
2024-01-15T01:31:16.570Z,3.28
2024-01-15T01:32:16.433Z,3.28
2024-01-15T01:33:16.542Z,3.28
2024-01-15T01:34:16.575Z,3.29
2024-01-15T01:35:16.395Z,3.28
2024-01-15T01:36:16.468Z,3.29
2024-01-15T01:37:16.385Z,3.29
2024-01-15T01:38:16.375Z,3.28
2024-01-15T01:39:16.416Z,3.28
2024-01-15T01:40:16.362Z,3.28
2024-01-15T01:41:16.342Z,3.29
2024-01-15T01:42:16.439Z,3.28
2024-01-15T01:43:16.327Z,3.29
2024-01-15T01:44:16.320Z,3.32
2024-01-15T01:45:16.332Z,3.33
2024-01-15T01:46:16.287Z,3.32
2024-01-15T01:47:16.285Z,3.33
2024-01-15T01:48:16.343Z,3.29
2024-01-15T01:49:16.322Z,3.26
2024-01-15T01:50:16.255Z,3.26
2024-01-15T01:51:16.274Z,3.24
2024-01-15T01:52:16.236Z,3.26
2024-01-15T01:53:16.212Z,3.24
2024-01-15T01:54:16.215Z,3.26
2024-01-15T01:55:16.190Z,3.26
2024-01-15T01:56:16.198Z,3.26
2024-01-15T01:57:16.229Z,3.29
2024-01-15T01:58:16.160Z,3.28
2024-01-15T01:59:16.165Z,3.28
2024-01-15T02:00:16.153Z,3.29
2024-01-15T02:01:16.232Z,3.28
2024-01-15T02:02:16.122Z,3.28
2024-01-15T02:03:16.169Z,3.28
2024-01-15T02:04:19.681Z,3.28
2024-01-15T02:05:16.095Z,3.29
2024-01-15T02:06:16.125Z,3.31
2024-01-15T02:07:16.086Z,3.32
2024-01-15T02:08:16.049Z,3.31
2024-01-15T02:09:16.174Z,3.32
2024-01-15T02:10:16.030Z,3.31
2024-01-15T02:11:16.041Z,3.32
2024-01-15T02:12:16.036Z,3.33
2024-01-15T02:13:16.001Z,3.31
2024-01-15T02:14:16.019Z,3.29
2024-01-15T02:15:16.015Z,3.29
2024-01-15T02:16:15.953Z,3.31
2024-01-15T02:17:15.953Z,3.31
2024-01-15T02:18:16.059Z,3.31
2024-01-15T02:19:16.104Z,3.32
2024-01-15T02:20:15.920Z,3.32
2024-01-15T02:21:15.947Z,3.31
2024-01-15T02:22:15.907Z,3.32
2024-01-15T02:23:15.902Z,3.33
2024-01-15T02:24:15.907Z,3.32
2024-01-15T02:25:15.870Z,3.35
2024-01-15T02:26:15.862Z,3.33
2024-01-15T02:27:15.856Z,3.31
2024-01-15T02:28:15.873Z,3.31
2024-01-15T02:29:15.851Z,3.28
2024-01-15T02:30:15.865Z,3.26
2024-01-15T02:31:15.849Z,3.26
2024-01-15T02:32:15.784Z,3.24
2024-01-15T02:33:15.932Z,3.24
2024-01-15T02:34:15.861Z,3.24
2024-01-15T02:35:15.769Z,3.24
2024-01-15T02:36:15.814Z,3.26
2024-01-15T02:37:15.734Z,3.28
2024-01-15T02:38:15.726Z,3.29
2024-01-15T02:39:15.752Z,3.29
2024-01-15T02:40:15.702Z,3.31
2024-01-15T02:41:15.691Z,3.31
2024-01-15T02:42:15.720Z,3.31
2024-01-15T02:43:15.689Z,3.32
2024-01-15T02:44:15.652Z,3.32
2024-01-15T02:45:15.670Z,3.33
2024-01-15T02:46:15.631Z,3.35
2024-01-15T02:47:15.654Z,3.35
2024-01-15T02:48:15.803Z,3.36
2024-01-15T02:49:15.721Z,3.36
2024-01-15T02:50:15.610Z,3.39
2024-01-15T02:51:15.655Z,3.40
2024-01-15T02:52:15.579Z,3.43
2024-01-15T02:53:15.566Z,3.43
2024-01-15T02:54:15.591Z,3.43
2024-01-15T02:55:15.538Z,3.42
2024-01-15T02:56:15.529Z,3.40
2024-01-15T02:57:15.574Z,3.43
2024-01-15T02:58:15.508Z,3.43
2024-01-15T02:59:15.498Z,3.45
2024-01-15T03:00:15.640Z,3.47
2024-01-15T03:01:15.579Z,3.45
2024-01-15T03:02:15.513Z,3.43
2024-01-15T03:03:15.479Z,3.40
2024-01-15T03:04:15.629Z,3.39
2024-01-15T03:05:15.681Z,3.39
2024-01-15T03:06:15.459Z,3.36
2024-01-15T03:07:15.422Z,3.39
2024-01-15T03:08:15.401Z,3.42
2024-01-15T03:09:15.482Z,3.39
2024-01-15T03:10:15.376Z,3.40
2024-01-15T03:11:15.400Z,3.39
2024-01-15T03:12:15.377Z,3.40
2024-01-15T03:13:15.379Z,3.42
2024-01-15T03:14:15.344Z,3.40
2024-01-15T03:15:15.365Z,3.40
2024-01-15T03:16:15.328Z,3.40
2024-01-15T03:17:15.312Z,3.42
2024-01-15T03:18:15.352Z,3.42
2024-01-15T03:19:15.356Z,3.42
2024-01-15T03:20:15.332Z,3.43
2024-01-15T03:21:15.345Z,3.43
2024-01-15T03:22:15.252Z,3.42
2024-01-15T03:23:15.273Z,3.43
2024-01-15T03:24:15.248Z,3.43
2024-01-15T03:25:15.247Z,3.45
2024-01-15T03:26:15.218Z,3.45
2024-01-15T03:27:15.224Z,3.48
2024-01-15T03:28:15.191Z,3.48
2024-01-15T03:29:15.201Z,3.48
2024-01-15T03:30:15.247Z,3.48
2024-01-15T03:31:15.241Z,3.45
2024-01-15T03:32:15.159Z,3.45
2024-01-15T03:33:15.224Z,3.47
2024-01-15T03:34:15.209Z,3.45
2024-01-15T03:35:15.201Z,3.45
2024-01-15T03:36:15.122Z,3.43
2024-01-15T03:37:15.098Z,3.45
2024-01-15T03:38:15.084Z,3.47
2024-01-15T03:39:15.142Z,3.48
2024-01-15T03:40:16.030Z,3.47
2024-01-15T03:41:15.071Z,3.47
2024-01-15T03:42:15.069Z,3.47
2024-01-15T03:43:15.052Z,3.47
2024-01-15T03:44:15.030Z,3.48
2024-01-15T03:45:15.054Z,3.48
2024-01-15T03:46:15.000Z,3.48
2024-01-15T03:47:15.006Z,3.45
2024-01-15T03:48:15.203Z,3.42
2024-01-15T03:49:15.035Z,3.42
2024-01-15T03:50:14.979Z,3.43
2024-01-15T03:51:14.969Z,3.43
2024-01-15T03:52:14.933Z,3.45
2024-01-15T03:53:14.941Z,3.45
2024-01-15T03:54:16.539Z,3.47
2024-01-15T03:55:14.909Z,3.47
2024-01-15T03:56:14.900Z,3.47
2024-01-15T03:57:14.946Z,3.48
2024-01-15T03:58:14.887Z,3.47
2024-01-15T03:59:14.887Z,3.48
2024-01-15T04:00:14.900Z,3.48
2024-01-15T04:01:14.887Z,3.50
2024-01-15T04:02:14.846Z,3.48
2024-01-15T04:03:14.857Z,3.48
2024-01-15T04:04:16.663Z,3.47
2024-01-15T04:05:14.801Z,3.48
2024-01-15T04:06:14.857Z,3.45
2024-01-15T04:07:14.810Z,3.47
2024-01-15T04:08:14.758Z,3.47
2024-01-15T04:09:14.806Z,3.47
2024-01-15T04:10:14.738Z,3.47
2024-01-15T04:11:14.745Z,3.47
2024-01-15T04:12:14.773Z,3.45
2024-01-15T04:13:14.705Z,3.45
2024-01-15T04:14:14.704Z,3.45
2024-01-15T04:15:14.792Z,3.45
2024-01-15T04:16:14.700Z,3.43
2024-01-15T04:17:14.677Z,3.40
2024-01-15T04:18:14.732Z,3.40
2024-01-15T04:19:14.737Z,3.39
2024-01-15T04:20:14.642Z,3.36
2024-01-15T04:21:14.664Z,3.36
2024-01-15T04:22:14.606Z,3.36
2024-01-15T04:23:14.599Z,3.39
2024-01-15T04:24:14.748Z,3.40
2024-01-15T04:25:14.592Z,3.42
2024-01-15T04:26:14.579Z,3.42
2024-01-15T04:27:14.581Z,3.42
2024-01-15T04:28:14.556Z,3.43
2024-01-15T04:29:14.536Z,3.42
2024-01-15T04:30:14.801Z,3.43
2024-01-15T04:31:14.577Z,3.43
2024-01-15T04:32:14.506Z,3.45
2024-01-15T04:33:14.648Z,3.47
2024-01-15T04:34:14.645Z,3.47
2024-01-15T04:35:14.503Z,3.48
2024-01-15T04:36:14.490Z,3.48
2024-01-15T04:37:14.459Z,3.50
2024-01-15T04:38:14.458Z,3.48
2024-01-15T04:39:14.492Z,3.48
2024-01-15T04:40:14.430Z,3.48
2024-01-15T04:41:14.423Z,3.47
2024-01-15T04:42:14.414Z,3.47
2024-01-15T04:43:14.390Z,3.47
2024-01-15T04:44:14.388Z,3.43
2024-01-15T04:45:14.428Z,3.39
2024-01-15T04:46:14.359Z,3.40
2024-01-15T04:47:14.353Z,3.36
2024-01-15T04:48:14.400Z,3.33
2024-01-15T04:49:14.491Z,3.33
2024-01-15T04:50:14.330Z,3.33
2024-01-15T04:51:14.330Z,3.35
2024-01-15T04:52:14.297Z,3.36
2024-01-15T04:53:14.330Z,3.35
2024-01-15T04:54:14.297Z,3.39
2024-01-15T04:55:14.289Z,3.42
2024-01-15T04:56:14.253Z,3.42
2024-01-15T04:57:14.314Z,3.43
2024-01-15T04:58:14.248Z,3.42
2024-01-15T04:59:14.227Z,3.42
2024-01-15T05:00:14.263Z,3.42
2024-01-15T05:01:14.293Z,3.40
2024-01-15T05:02:14.224Z,3.39
2024-01-15T05:03:14.343Z,3.39
2024-01-15T05:04:14.223Z,3.36
2024-01-15T05:05:14.200Z,3.36
2024-01-15T05:06:14.251Z,3.36
2024-01-15T05:07:14.145Z,3.39
2024-01-15T05:08:14.133Z,3.40
2024-01-15T05:09:14.147Z,3.42
2024-01-15T05:10:14.130Z,3.43
2024-01-15T05:11:14.092Z,3.43
2024-01-15T05:12:14.127Z,3.43
2024-01-15T05:13:14.063Z,3.43
2024-01-15T05:14:14.061Z,3.47
2024-01-15T05:15:14.107Z,3.45
2024-01-15T05:16:14.041Z,3.45
2024-01-15T05:17:14.035Z,3.45
2024-01-15T05:18:14.144Z,3.43
2024-01-15T05:19:14.174Z,3.43
2024-01-15T05:20:14.091Z,3.45
2024-01-15T05:21:14.070Z,3.45
2024-01-15T05:22:13.993Z,3.45
2024-01-15T05:23:13.957Z,3.48
2024-01-15T05:24:13.982Z,3.48
2024-01-15T05:25:13.979Z,3.45
2024-01-15T05:26:13.965Z,3.47
2024-01-15T05:27:13.970Z,3.45
2024-01-15T05:28:13.915Z,3.47
2024-01-15T05:29:13.917Z,3.48
2024-01-15T05:30:13.968Z,3.47
2024-01-15T05:31:14.000Z,3.45
2024-01-15T05:32:13.873Z,3.45
2024-01-15T05:33:13.963Z,3.42
2024-01-15T05:34:13.903Z,3.40
2024-01-15T05:35:13.850Z,3.39
2024-01-15T05:36:13.874Z,3.40
2024-01-15T05:37:13.817Z,3.42
2024-01-15T05:38:13.838Z,3.42
2024-01-15T05:39:13.809Z,3.43
2024-01-15T05:40:13.795Z,3.43
2024-01-15T05:41:13.772Z,3.43
2024-01-15T05:42:13.803Z,3.43
2024-01-15T05:43:13.748Z,3.45
2024-01-15T05:44:13.739Z,3.43
2024-01-15T05:45:13.775Z,3.43
2024-01-15T05:46:13.716Z,3.45
2024-01-15T05:47:13.707Z,3.45
2024-01-15T05:48:13.860Z,3.47
2024-01-15T05:49:13.844Z,3.48
2024-01-15T05:50:13.688Z,3.48
2024-01-15T05:51:13.695Z,3.50
2024-01-15T05:52:13.673Z,3.47
2024-01-15T05:53:13.645Z,3.45
2024-01-15T05:54:13.661Z,3.47
2024-01-15T05:55:13.628Z,3.50
2024-01-15T05:56:13.607Z,3.50
2024-01-15T05:57:13.637Z,3.52
2024-01-15T05:58:13.601Z,3.51
2024-01-15T05:59:15.787Z,3.51
2024-01-15T06:00:13.691Z,3.50
2024-01-15T06:01:13.688Z,3.48
2024-01-15T06:02:13.557Z,3.47
2024-01-15T06:03:13.548Z,3.48
2024-01-15T06:04:13.695Z,3.51
2024-01-15T06:05:13.549Z,3.51
2024-01-15T06:06:13.638Z,3.51
2024-01-15T06:07:13.497Z,3.51
2024-01-15T06:08:13.508Z,3.54
2024-01-15T06:09:13.578Z,3.54
2024-01-15T06:10:13.463Z,3.54
2024-01-15T06:11:13.444Z,3.54
2024-01-15T06:12:13.494Z,3.52
2024-01-15T06:13:13.435Z,3.54
2024-01-15T06:14:13.415Z,3.54
2024-01-15T06:15:13.439Z,3.54
2024-01-15T06:16:13.521Z,3.57
2024-01-15T06:17:13.396Z,3.57
2024-01-15T06:18:13.540Z,3.58
2024-01-15T06:19:13.432Z,3.60
2024-01-15T06:20:13.363Z,3.61
2024-01-15T06:21:13.373Z,3.62
2024-01-15T06:22:13.379Z,3.61
2024-01-15T06:23:13.316Z,3.60
2024-01-15T06:24:13.338Z,3.61
2024-01-15T06:25:13.316Z,3.62
2024-01-15T06:26:13.302Z,3.65
2024-01-15T06:27:13.294Z,3.65
2024-01-15T06:28:13.269Z,3.62
2024-01-15T06:29:13.251Z,3.66
2024-01-15T06:30:13.764Z,3.62
2024-01-15T06:31:13.395Z,3.58
2024-01-15T06:32:13.338Z,3.57
2024-01-15T06:33:13.317Z,3.55
2024-01-15T06:34:13.393Z,3.52
2024-01-15T06:35:13.227Z,3.52
2024-01-15T06:36:13.219Z,3.54
2024-01-15T06:37:13.180Z,3.55
2024-01-15T06:38:13.166Z,3.55
2024-01-15T06:39:13.178Z,3.54
2024-01-15T06:40:13.141Z,3.52
2024-01-15T06:41:13.153Z,3.51
2024-01-15T06:42:13.172Z,3.51
2024-01-15T06:43:13.116Z,3.51
2024-01-15T06:44:13.109Z,3.51
2024-01-15T06:45:13.114Z,3.51
2024-01-15T06:46:13.151Z,3.54
2024-01-15T06:47:13.075Z,3.54
2024-01-15T06:48:13.101Z,3.52
2024-01-15T06:49:13.228Z,3.54
2024-01-15T06:50:13.043Z,3.54
2024-01-15T06:51:13.046Z,3.55
2024-01-15T06:52:13.011Z,3.54
2024-01-15T06:53:12.996Z,3.54
2024-01-15T06:54:13.047Z,3.52
2024-01-15T06:55:13.004Z,3.51
2024-01-15T06:56:12.977Z,3.50
2024-01-15T06:57:13.000Z,3.48
2024-01-15T06:58:13.004Z,3.47
2024-01-15T06:59:14.685Z,3.43
2024-01-15T07:00:12.947Z,3.43
2024-01-15T07:01:12.986Z,3.42
2024-01-15T07:02:12.923Z,3.42
2024-01-15T07:03:12.998Z,3.42
2024-01-15T07:04:12.934Z,3.43
2024-01-15T07:05:12.898Z,3.43
2024-01-15T07:06:12.943Z,3.43
2024-01-15T07:07:12.856Z,3.47
2024-01-15T07:08:12.863Z,3.43
2024-01-15T07:09:12.915Z,3.43
2024-01-15T07:10:12.828Z,3.45
2024-01-15T07:11:12.825Z,3.47
2024-01-15T07:12:12.990Z,3.48
2024-01-15T07:13:12.805Z,3.50
2024-01-15T07:14:12.792Z,3.50
2024-01-15T07:15:12.813Z,3.48
2024-01-15T07:16:12.761Z,3.48
2024-01-15T07:17:12.777Z,3.47
2024-01-15T07:18:12.934Z,3.45
2024-01-15T07:19:12.823Z,3.47
2024-01-15T07:20:12.815Z,3.47
2024-01-15T07:21:12.737Z,3.47
2024-01-15T07:22:12.710Z,3.45
2024-01-15T07:23:12.698Z,3.47
2024-01-15T07:24:12.786Z,3.48
2024-01-15T07:25:12.673Z,3.47
2024-01-15T07:26:12.665Z,3.50
2024-01-15T07:27:12.680Z,3.50
2024-01-15T07:28:12.636Z,3.51
2024-01-15T07:29:12.627Z,3.51
2024-01-15T07:30:12.783Z,3.51
2024-01-15T07:31:12.679Z,3.52
2024-01-15T07:32:12.601Z,3.51
2024-01-15T07:33:12.727Z,3.54
2024-01-15T07:34:12.661Z,3.54
2024-01-15T07:35:12.594Z,3.55
2024-01-15T07:36:12.637Z,3.55
2024-01-15T07:37:12.546Z,3.57
2024-01-15T07:38:12.537Z,3.58
2024-01-15T07:39:12.564Z,3.60
2024-01-15T07:40:12.587Z,3.61
2024-01-15T07:41:12.504Z,3.61
2024-01-15T07:42:12.502Z,3.62
2024-01-15T07:43:12.470Z,3.65
2024-01-15T07:44:12.462Z,3.65
2024-01-15T07:45:12.514Z,3.62
2024-01-15T07:46:12.499Z,3.65
2024-01-15T07:47:12.435Z,3.65
2024-01-15T07:48:12.595Z,3.65
2024-01-15T07:49:12.456Z,3.62
2024-01-15T07:50:12.459Z,3.61
2024-01-15T07:51:12.461Z,3.60
2024-01-15T07:52:12.379Z,3.61
2024-01-15T07:53:12.367Z,3.58
2024-01-15T07:54:12.390Z,3.57
2024-01-15T07:55:12.352Z,3.55
2024-01-15T07:56:12.338Z,3.55
2024-01-15T07:57:12.406Z,3.55
2024-01-15T07:58:16.467Z,3.54
2024-01-15T07:59:12.308Z,3.52
2024-01-15T08:00:12.437Z,3.51
2024-01-15T08:01:12.432Z,3.50
2024-01-15T08:02:12.306Z,3.50
2024-01-15T08:03:12.388Z,3.51
2024-01-15T08:04:12.409Z,3.52
2024-01-15T08:05:12.256Z,3.54
2024-01-15T08:06:12.308Z,3.54
2024-01-15T08:07:12.295Z,3.57
2024-01-15T08:08:12.215Z,3.57
2024-01-15T08:09:12.234Z,3.55
2024-01-15T08:10:12.195Z,3.55
2024-01-15T08:11:12.173Z,3.58
2024-01-15T08:12:12.238Z,3.58
2024-01-15T08:13:12.197Z,3.60
2024-01-15T08:14:12.164Z,3.58
2024-01-15T08:15:12.178Z,3.60
2024-01-15T08:16:12.142Z,3.61
2024-01-15T08:17:12.109Z,3.61
2024-01-15T08:18:12.266Z,3.61
2024-01-15T08:19:12.312Z,3.61
2024-01-15T08:20:12.214Z,3.60
2024-01-15T08:21:12.066Z,3.61
2024-01-15T08:22:12.056Z,3.60
2024-01-15T08:23:12.051Z,3.61
2024-01-15T08:24:12.118Z,3.62
2024-01-15T08:25:12.024Z,3.62
2024-01-15T08:26:12.031Z,3.61
2024-01-15T08:27:12.087Z,3.62
2024-01-15T08:28:12.016Z,3.62
2024-01-15T08:29:11.992Z,3.62
2024-01-15T08:30:12.064Z,3.61
2024-01-15T08:31:12.056Z,3.61
2024-01-15T08:32:11.972Z,3.55
2024-01-15T08:33:21.118Z,3.52
2024-01-15T08:34:12.030Z,3.50
2024-01-15T08:35:12.006Z,3.47
2024-01-15T08:36:12.022Z,3.45
2024-01-15T08:37:11.898Z,3.45
2024-01-15T08:38:11.887Z,3.43
2024-01-15T08:39:11.922Z,3.43
2024-01-15T08:40:11.872Z,3.40
2024-01-15T08:41:11.862Z,3.40
2024-01-15T08:42:11.923Z,3.42
2024-01-15T08:43:11.845Z,3.42
2024-01-15T08:44:11.844Z,3.40
2024-01-15T08:45:11.825Z,3.39
2024-01-15T08:46:11.831Z,3.39
2024-01-15T08:47:11.789Z,3.40
2024-01-15T08:48:11.850Z,3.42
2024-01-15T08:49:11.806Z,3.40
2024-01-15T08:50:11.754Z,3.42
2024-01-15T08:51:11.779Z,3.43
2024-01-15T08:52:11.740Z,3.47
2024-01-15T08:53:11.719Z,3.47
2024-01-15T08:54:11.751Z,3.45
2024-01-15T08:55:11.716Z,3.48
2024-01-15T08:56:11.715Z,3.50
2024-01-15T08:57:11.697Z,3.51
2024-01-15T08:58:11.676Z,3.52
2024-01-15T08:59:11.669Z,3.52
2024-01-15T09:00:11.723Z,3.54
2024-01-15T09:01:11.812Z,3.55
2024-01-15T09:02:11.637Z,3.58
2024-01-15T09:03:11.651Z,3.57
2024-01-15T09:04:11.692Z,3.58
2024-01-15T09:05:11.770Z,3.60
2024-01-15T09:06:11.657Z,3.61
2024-01-15T09:07:11.572Z,3.58
2024-01-15T09:08:11.575Z,3.58
2024-01-15T09:09:11.603Z,3.58
2024-01-15T09:10:11.554Z,3.58
2024-01-15T09:11:11.533Z,3.58
2024-01-15T09:12:11.606Z,3.57
2024-01-15T09:13:11.504Z,3.57
2024-01-15T09:14:11.510Z,3.55
2024-01-15T09:15:11.520Z,3.52
2024-01-15T09:16:11.570Z,3.50
2024-01-15T09:17:11.458Z,3.45
2024-01-15T09:18:11.572Z,3.45
2024-01-15T09:19:11.543Z,3.43
2024-01-15T09:20:11.481Z,3.42
2024-01-15T09:21:11.521Z,3.42
2024-01-15T09:22:11.417Z,3.40
2024-01-15T09:23:11.405Z,3.42
2024-01-15T09:24:11.424Z,3.40
2024-01-15T09:25:11.536Z,3.39
2024-01-15T09:26:11.369Z,3.36
2024-01-15T09:27:11.444Z,3.36
2024-01-15T09:28:11.370Z,3.39
2024-01-15T09:29:11.345Z,3.39
2024-01-15T09:30:11.489Z,3.35
2024-01-15T09:31:11.405Z,3.35
2024-01-15T09:32:11.394Z,3.35
2024-01-15T09:33:11.501Z,3.33
2024-01-15T09:34:11.411Z,3.35
2024-01-15T09:35:11.275Z,3.35
2024-01-15T09:36:11.308Z,3.39
2024-01-15T09:37:14.777Z,3.39
2024-01-15T09:38:11.249Z,3.42
2024-01-15T09:39:11.278Z,3.43
2024-01-15T09:40:11.240Z,3.47
2024-01-15T09:41:11.284Z,3.50
2024-01-15T09:42:11.240Z,3.51
2024-01-15T09:43:11.233Z,3.52
2024-01-15T09:44:11.180Z,3.54
2024-01-15T09:45:11.413Z,3.55
2024-01-15T09:46:11.182Z,3.60
2024-01-15T09:47:11.177Z,3.61
2024-01-15T09:48:11.214Z,3.60
2024-01-15T09:49:11.230Z,3.62
2024-01-15T09:50:11.290Z,3.62
2024-01-15T09:51:11.146Z,3.66
2024-01-15T09:52:12.317Z,3.66
2024-01-15T09:53:11.088Z,3.65
2024-01-15T09:54:11.133Z,3.66
2024-01-15T09:55:11.242Z,3.66
2024-01-15T09:56:11.086Z,3.66
2024-01-15T09:57:11.078Z,3.69
2024-01-15T09:58:11.030Z,3.70
2024-01-15T09:59:11.024Z,3.72
2024-01-15T10:00:11.061Z,3.72
2024-01-15T10:01:11.097Z,3.73
2024-01-15T10:02:11.016Z,3.76
2024-01-15T10:03:11.534Z,3.76
2024-01-15T10:04:11.079Z,3.79
2024-01-15T10:05:10.984Z,3.83
2024-01-15T10:06:11.033Z,3.86
2024-01-15T10:07:10.966Z,3.87
2024-01-15T10:08:10.918Z,3.90
2024-01-15T10:09:10.964Z,3.88
2024-01-15T10:10:10.915Z,3.87
2024-01-15T10:11:10.894Z,3.87
2024-01-15T10:12:10.912Z,3.87
2024-01-15T10:13:10.867Z,3.87
2024-01-15T10:14:10.862Z,3.87
2024-01-15T10:15:10.880Z,3.87
2024-01-15T10:16:10.835Z,3.86
2024-01-15T10:17:10.827Z,3.87
2024-01-15T10:18:10.988Z,3.86
2024-01-15T10:19:10.992Z,3.86
2024-01-15T10:20:10.860Z,3.83
2024-01-15T10:21:10.823Z,3.83
2024-01-15T10:22:10.771Z,3.79
2024-01-15T10:23:10.772Z,3.78
2024-01-15T10:24:10.763Z,3.78
2024-01-15T10:25:10.756Z,3.79
2024-01-15T10:26:10.723Z,3.86
2024-01-15T10:27:10.797Z,3.86
2024-01-15T10:28:10.715Z,3.88
2024-01-15T10:29:10.695Z,3.88
2024-01-15T10:30:10.726Z,3.90
2024-01-15T10:31:10.750Z,3.86
2024-01-15T10:32:10.990Z,3.84
2024-01-15T10:33:10.835Z,3.86
2024-01-15T10:34:10.771Z,3.84
2024-01-15T10:35:10.660Z,3.86
2024-01-15T10:36:10.747Z,3.88
2024-01-15T10:37:10.731Z,3.91
2024-01-15T10:38:10.619Z,3.94
2024-01-15T10:39:10.673Z,3.94
2024-01-15T10:40:10.574Z,3.96
2024-01-15T10:41:10.598Z,3.96
2024-01-15T10:42:10.609Z,4.00
2024-01-15T10:43:10.555Z,4.04
2024-01-15T10:44:10.540Z,4.06
2024-01-15T10:45:10.587Z,4.08
2024-01-15T10:46:10.556Z,4.11
2024-01-15T10:47:10.517Z,4.15
2024-01-15T10:48:10.719Z,4.20
2024-01-15T10:49:10.589Z,4.24
2024-01-15T10:50:10.469Z,4.30
2024-01-15T10:51:10.498Z,4.30
2024-01-15T10:52:10.456Z,4.32
2024-01-15T10:53:10.445Z,4.29
2024-01-15T10:54:10.453Z,4.29
2024-01-15T10:55:14.521Z,4.30
2024-01-15T10:56:10.492Z,4.34
2024-01-15T10:57:10.453Z,4.41
2024-01-15T10:58:10.383Z,4.47
2024-01-15T10:59:10.385Z,4.52
2024-01-15T11:00:10.584Z,4.60
2024-01-15T11:01:10.447Z,4.67
2024-01-15T11:02:10.401Z,4.73
2024-01-15T11:03:10.538Z,4.82
2024-01-15T11:04:10.462Z,4.85
2024-01-15T11:05:10.352Z,4.89
2024-01-15T11:07:10.346Z,4.75
2024-01-15T11:08:10.292Z,4.67
2024-01-15T11:09:10.423Z,4.65
2024-01-15T11:10:10.270Z,4.66
2024-01-15T11:11:10.268Z,4.67
2024-01-15T11:12:10.377Z,4.66
2024-01-15T11:13:10.230Z,4.67
2024-01-15T11:14:10.249Z,4.70
2024-01-15T11:15:10.658Z,4.69
2024-01-15T11:16:10.218Z,4.72
2024-01-15T11:17:10.196Z,4.80
2024-01-15T11:18:10.258Z,4.97
2024-01-15T11:19:10.287Z,5.22
2024-01-15T11:20:10.188Z,5.39
2024-01-15T11:21:10.256Z,5.57
2024-01-15T11:22:10.144Z,5.67
2024-01-15T11:23:10.185Z,5.78
2024-01-15T11:24:10.222Z,5.75
2024-01-15T11:25:10.118Z,5.67
2024-01-15T11:26:10.094Z,5.60
2024-01-15T11:27:10.103Z,5.51
2024-01-15T11:28:10.078Z,5.43
2024-01-15T11:29:10.065Z,5.38
2024-01-15T11:30:10.128Z,5.36
2024-01-15T11:31:10.180Z,5.28
2024-01-15T11:32:10.233Z,5.25
2024-01-15T11:33:10.148Z,5.24
2024-01-15T11:34:10.232Z,5.28
2024-01-15T11:35:10.034Z,5.30
2024-01-15T11:36:09.982Z,5.40
2024-01-15T11:37:09.989Z,5.48
2024-01-15T11:38:09.969Z,5.54
2024-01-15T11:39:09.957Z,5.65
2024-01-15T11:40:09.941Z,5.72
2024-01-15T11:41:09.934Z,5.67
2024-01-15T11:42:09.960Z,5.60
2024-01-15T11:43:09.940Z,5.54
2024-01-15T11:44:09.904Z,5.53
2024-01-15T11:45:09.909Z,5.53
2024-01-15T11:46:09.950Z,5.61
2024-01-15T11:47:12.966Z,5.61
2024-01-15T11:48:09.919Z,5.68
2024-01-15T11:49:09.911Z,5.78
2024-01-15T11:50:10.012Z,5.85
2024-01-15T11:51:09.834Z,5.90
2024-01-15T11:52:09.832Z,6.14
2024-01-15T11:53:09.820Z,6.37
2024-01-15T11:54:09.828Z,6.54
2024-01-15T11:55:09.796Z,6.67
2024-01-15T11:56:09.789Z,6.79
2024-01-15T11:57:09.771Z,7.03
2024-01-15T11:58:09.771Z,7.07
2024-01-15T11:59:09.755Z,6.87
2024-01-15T12:00:09.742Z,6.66
2024-01-15T12:01:09.848Z,6.55
2024-01-15T12:02:09.707Z,6.43
2024-01-15T12:03:09.701Z,6.28
2024-01-15T12:04:09.855Z,6.14
2024-01-15T12:05:09.767Z,6.01
2024-01-15T12:06:09.737Z,5.93
2024-01-15T12:07:09.744Z,5.83
2024-01-15T12:08:09.642Z,5.79
2024-01-15T12:09:09.642Z,5.82
2024-01-15T12:10:09.630Z,5.89
2024-01-15T12:11:09.616Z,5.93
2024-01-15T12:12:09.599Z,5.93
2024-01-15T12:13:09.617Z,5.94
2024-01-15T12:14:09.616Z,6.00
2024-01-15T12:15:09.584Z,6.01
2024-01-15T12:16:09.739Z,6.06
2024-01-15T12:17:09.566Z,6.14
2024-01-15T12:18:09.575Z,6.17
2024-01-15T12:19:09.669Z,6.21
2024-01-15T12:20:09.537Z,6.25
2024-01-15T12:21:09.506Z,6.22
2024-01-15T12:22:09.505Z,6.21
2024-01-15T12:23:10.419Z,6.18
2024-01-15T12:24:09.499Z,6.14
2024-01-15T12:25:09.472Z,6.03
2024-01-15T12:26:09.466Z,5.93
2024-01-15T12:27:09.462Z,5.82
2024-01-15T12:28:09.418Z,5.78
2024-01-15T12:29:09.446Z,5.75
2024-01-15T12:30:09.434Z,5.72
2024-01-15T12:31:09.480Z,5.74
2024-01-15T12:32:09.401Z,5.76
2024-01-15T12:33:10.385Z,5.72
2024-01-15T12:34:09.437Z,5.71
2024-01-15T12:35:09.362Z,5.71
2024-01-15T12:36:09.357Z,5.74
2024-01-15T12:37:09.339Z,5.65
2024-01-15T12:38:09.366Z,5.75
2024-01-15T12:39:09.311Z,5.75
2024-01-15T12:40:09.332Z,5.68
2024-01-15T12:41:09.297Z,5.64
2024-01-15T12:42:09.283Z,5.65
2024-01-15T12:43:09.352Z,5.67
2024-01-15T12:44:09.283Z,5.64
2024-01-15T12:45:09.252Z,5.64
2024-01-15T12:46:09.243Z,5.65
2024-01-15T12:47:09.245Z,5.64
2024-01-15T12:48:09.337Z,5.65
2024-01-15T12:49:09.290Z,5.68
2024-01-15T12:50:16.259Z,5.71
2024-01-15T12:51:09.196Z,5.74
2024-01-15T12:52:09.178Z,5.75
2024-01-15T12:53:09.190Z,5.72
2024-01-15T12:54:09.161Z,5.68
2024-01-15T12:55:09.146Z,5.65
2024-01-15T12:56:09.133Z,5.58
2024-01-15T12:57:09.131Z,5.54
2024-01-15T12:58:09.114Z,5.48
2024-01-15T12:59:09.108Z,5.48
2024-01-15T13:00:09.085Z,5.43
2024-01-15T13:01:09.164Z,5.45
2024-01-15T13:02:09.075Z,5.46
2024-01-15T13:03:09.068Z,5.54
2024-01-15T13:04:09.168Z,5.57
2024-01-15T13:05:09.314Z,5.60
2024-01-15T13:06:09.044Z,5.60
2024-01-15T13:07:09.151Z,5.65
2024-01-15T13:08:09.003Z,5.83
2024-01-15T13:09:08.992Z,6.08
2024-01-15T13:10:08.982Z,6.33
2024-01-15T13:11:08.993Z,6.43
2024-01-15T13:12:08.959Z,6.46
2024-01-15T13:13:08.967Z,6.36
2024-01-15T13:14:08.940Z,6.18
2024-01-15T13:15:08.995Z,6.06
2024-01-15T13:16:09.014Z,5.97
2024-01-15T13:17:08.931Z,5.91
2024-01-15T13:18:08.933Z,5.85
2024-01-15T13:19:09.043Z,5.85